Time,TemperatureF,DewpointF,PressureIn,WindDirection,WindDirectionDegrees,WindSpeedMPH,WindSpeedGustMPH,Humidity,HourlyPrecipIn,Conditions,Clouds,dailyrainin,SoftwareType,DateUTC
2013-03-23 00:13:00,30.2,22.0,29.80,West,261,3.0,-999.0,71,-99.99,,,0.00,weatherlink.com 1.10,2013-03-23 04:13:00,
2013-03-23 00:28:00,30.1,22.0,29.79,West,261,3.0,-999.0,71,-99.99,,,0.00,weatherlink.com 1.10,2013-03-23 04:28:00,
2013-03-23 00:43:00,30.0,22.0,29.80,West,279,1.0,-999.0,71,-99.99,,,0.00,weatherlink.com 1.10,2013-03-23 04:43:00,
2013-03-23 00:58:00,29.9,22.0,29.79,WNW,298,1.0,-999.0,72,-99.99,,,0.00,weatherlink.com 1.10,2013-03-23 04:58:00,
2013-03-23 01:13:00,29.9,22.0,29.79,West,263,2.0,-999.0,72,-99.99,,,0.00,weatherlink.com 1.10,2013-03-23 05:13:00,
2013-03-23 01:28:00,29.8,22.0,29.79,SW,227,1.0,-999.0,72,-99.99,,,0.00,weatherlink.com 1.10,2013-03-23 05:28:00,
2013-03-23 01:43:00,29.8,22.0,29.79,West,265,3.0,-999.0,72,-99.99,,,0.00,weatherlink.com 1.10,2013-03-23 05:43:00,
2013-03-23 01:58:00,29.7,22.0,29.79,West,267,2.0,-999.0,72,-99.99,,,0.00,weatherlink.com 1.10,2013-03-23 05:58:00,
2013-03-23 02:13:00,29.6,22.0,29.79,West,265,2.0,-999.0,73,-99.99,,,0.00,weatherlink.com 1.10,2013-03-23 06:13:00,
2013-03-23 02:28:00,29.6,22.0,29.79,WNW,301,0.0,-999.0,73,-99.99,,,0.00,weatherlink.com 1.10,2013-03-23 06:28:00,
2013-03-23 02:43:00,29.5,22.0,29.78,WNW,292,4.0,-999.0,73,-99.99,,,0.00,weatherlink.com 1.10,2013-03-23 06:43:00,
2013-03-23 02:58:00,29.4,22.0,29.78,West,263,2.0,-999.0,73,-99.99,,,0.00,weatherlink.com 1.10,2013-03-23 06:58:00,
2013-03-23 03:13:00,29.2,22.0,29.77,WNW,289,2.0,-999.0,73,-99.99,,,0.00,weatherlink.com 1.10,2013-03-23 07:13:00,
2013-03-23 03:28:00,29.0,22.0,29.77,WNW,295,4.0,-999.0,74,-99.99,,,0.00,weatherlink.com 1.10,2013-03-23 07:28:00,
2013-03-23 03:43:00,28.9,21.0,29.77,West,267,5.0,-999.0,73,-99.99,,,0.00,weatherlink.com 1.10,2013-03-23 07:43:00,
2013-03-23 03:58:00,28.7,21.0,29.77,NW,309,3.0,-999.0,73,-99.99,,,0.00,weatherlink.com 1.10,2013-03-23 07:58:00,
2013-03-23 04:13:00,28.5,21.0,29.76,WSW,256,3.0,-999.0,73,-99.99,,,0.00,weatherlink.com 1.10,2013-03-23 08:13:00,
2013-03-23 04:28:00,28.5,21.0,29.77,West,271,3.0,-999.0,73,-99.99,,,0.00,weatherlink.com 1.10,2013-03-23 08:28:00,
2013-03-23 04:44:00,28.6,21.0,29.77,West,275,3.0,-999.0,74,-99.99,,,0.00,weatherlink.com 1.10,2013-03-23 08:44:00,
2013-03-23 04:59:00,28.6,21.0,29.77,WSW,248,1.0,-999.0,74,-99.99,,,0.00,weatherlink.com 1.10,2013-03-23 08:59:00,
2013-03-23 05:14:00,28.8,22.0,29.77,SSW,200,2.0,-999.0,74,-99.99,,,0.00,weatherlink.com 1.10,2013-03-23 09:14:00,
2013-03-23 05:29:00,28.8,22.0,29.77,West,269,5.0,-999.0,74,-99.99,,,0.00,weatherlink.com 1.10,2013-03-23 09:29:00,
2013-03-23 05:44:00,28.8,22.0,29.77,West,260,6.0,-999.0,75,-99.99,,,0.00,weatherlink.com 1.10,2013-03-23 09:44:00,
2013-03-23 05:59:00,28.8,22.0,29.77,West,265,2.0,-999.0,75,-99.99,,,0.00,weatherlink.com 1.10,2013-03-23 09:59:00,
2013-03-23 06:14:00,28.8,22.0,29.77,WSW,257,0.0,-999.0,75,-99.99,,,0.00,weatherlink.com 1.10,2013-03-23 10:14:00,
2013-03-23 06:29:00,28.8,22.0,29.77,West,260,0.0,-999.0,75,-99.99,,,0.00,weatherlink.com 1.10,2013-03-23 10:29:00,
2013-03-23 06:44:00,28.6,22.0,29.77,WNW,286,2.0,-999.0,75,-99.99,,,0.00,weatherlink.com 1.10,2013-03-23 10:44:00,
2013-03-23 06:59:00,28.3,21.0,29.77,SSW,200,4.0,-999.0,75,-99.99,,,0.00,weatherlink.com 1.10,2013-03-23 10:59:00,
2013-03-23 07:14:00,28.1,21.0,29.78,SW,215,0.0,-999.0,76,-99.99,,,0.00,weatherlink.com 1.10,2013-03-23 11:14:00,
2013-03-23 07:29:00,28.3,22.0,29.78,SW,219,1.0,-999.0,76,-99.99,,,0.00,weatherlink.com 1.10,2013-03-23 11:29:00,
2013-03-23 07:44:00,28.7,22.0,29.77,SW,227,0.0,-999.0,75,-99.99,,,0.00,weatherlink.com 1.10,2013-03-23 11:44:00,
2013-03-23 07:59:00,29.0,22.0,29.77,WSW,248,0.0,-999.0,74,-99.99,,,0.00,weatherlink.com 1.10,2013-03-23 11:59:00,
2013-03-23 08:14:00,29.9,22.0,29.77,SW,236,4.0,-999.0,73,-99.99,,,0.00,weatherlink.com 1.10,2013-03-23 12:14:00,
2013-03-23 08:29:00,30.6,23.0,29.77,West,273,6.0,-999.0,72,-99.99,,,0.00,weatherlink.com 1.10,2013-03-23 12:29:00,
2013-03-23 08:44:00,30.6,23.0,29.76,WNW,298,5.0,-999.0,72,-99.99,,,0.00,weatherlink.com 1.10,2013-03-23 12:44:00,
2013-03-23 08:59:00,30.4,23.0,29.76,WSW,247,4.0,-999.0,73,-99.99,,,0.00,weatherlink.com 1.10,2013-03-23 12:59:00,
2013-03-23 09:14:00,30.7,23.0,29.77,West,263,3.0,-999.0,72,-99.99,,,0.00,weatherlink.com 1.10,2013-03-23 13:14:00,
2013-03-23 09:29:00,31.4,23.0,29.76,SSW,198,1.0,-999.0,71,-99.99,,,0.00,weatherlink.com 1.10,2013-03-23 13:29:00,
2013-03-23 09:44:00,32.2,23.0,29.76,West,274,1.0,-999.0,70,-99.99,,,0.00,weatherlink.com 1.10,2013-03-23 13:44:00,
2013-03-23 09:59:00,33.2,24.0,29.75,SW,225,1.0,-999.0,68,-99.99,,,0.00,weatherlink.com 1.10,2013-03-23 13:59:00,
2013-03-23 10:14:00,34.0,24.0,29.75,WSW,254,3.0,-999.0,66,-99.99,,,0.00,weatherlink.com 1.10,2013-03-23 14:14:00,
2013-03-23 10:29:00,33.6,23.0,29.76,NW,321,5.0,-999.0,66,-99.99,,,0.00,weatherlink.com 1.10,2013-03-23 14:29:00,
2013-03-23 10:44:00,33.8,24.0,29.76,NW,304,2.0,-999.0,67,-99.99,,,0.00,weatherlink.com 1.10,2013-03-23 14:44:00,
2013-03-23 10:59:00,32.8,25.0,29.77,NW,304,4.0,-999.0,72,-99.99,,,0.00,weatherlink.com 1.10,2013-03-23 14:59:00,
2013-03-23 11:14:00,32.0,24.0,29.77,NW,323,6.0,-999.0,73,-99.99,,,0.00,weatherlink.com 1.10,2013-03-23 15:14:00,
2013-03-23 11:29:00,33.9,24.0,29.77,NW,311,6.0,-999.0,68,-99.99,,,0.00,weatherlink.com 1.10,2013-03-23 15:29:00,
2013-03-23 11:44:00,34.3,22.0,29.77,NNW,347,5.0,-999.0,62,-99.99,,,0.00,weatherlink.com 1.10,2013-03-23 15:44:00,
2013-03-23 11:59:00,35.0,23.0,29.77,West,267,5.0,-999.0,61,-99.99,,,0.00,weatherlink.com 1.10,2013-03-23 15:59:00,
2013-03-23 12:14:00,35.4,21.0,29.77,NW,306,5.0,-999.0,56,-99.99,,,0.00,weatherlink.com 1.10,2013-03-23 16:14:00,
2013-03-23 12:29:00,34.9,21.0,29.77,West,275,5.0,-999.0,57,-99.99,,,0.00,weatherlink.com 1.10,2013-03-23 16:29:00,
2013-03-23 12:44:00,35.3,22.0,29.78,NW,306,4.0,-999.0,58,-99.99,,,0.00,weatherlink.com 1.10,2013-03-23 16:44:00,
2013-03-23 12:59:00,35.8,20.0,29.77,NNW,337,6.0,-999.0,54,-99.99,,,0.00,weatherlink.com 1.10,2013-03-23 16:59:00,
2013-03-23 13:15:00,35.7,19.0,29.77,West,273,9.0,-999.0,52,-99.99,,,0.00,weatherlink.com 1.10,2013-03-23 17:15:00,
2013-03-23 13:29:00,37.4,20.0,29.77,WNW,301,3.0,-999.0,50,-99.99,,,0.00,weatherlink.com 1.10,2013-03-23 17:29:00,
2013-03-23 13:44:00,37.9,21.0,29.76,WNW,287,4.0,-999.0,51,-99.99,,,0.00,weatherlink.com 1.10,2013-03-23 17:44:00,
2013-03-23 13:59:00,37.8,20.0,29.76,NW,310,8.0,-999.0,49,-99.99,,,0.00,weatherlink.com 1.10,2013-03-23 17:59:00,
2013-03-23 14:14:00,37.4,19.0,29.76,NW,316,5.0,-999.0,48,-99.99,,,0.00,weatherlink.com 1.10,2013-03-23 18:14:00,
2013-03-23 14:29:00,37.8,21.0,29.76,WNW,299,6.0,-999.0,50,-99.99,,,0.00,weatherlink.com 1.10,2013-03-23 18:29:00,
2013-03-23 14:44:00,37.8,20.0,29.76,West,271,7.0,-999.0,48,-99.99,,,0.00,weatherlink.com 1.10,2013-03-23 18:44:00,
2013-03-23 14:59:00,37.7,19.0,29.75,WNW,296,4.0,-999.0,48,-99.99,,,0.00,weatherlink.com 1.10,2013-03-23 18:59:00,
2013-03-23 15:14:00,37.6,20.0,29.75,NNW,348,8.0,-999.0,50,-99.99,,,0.00,weatherlink.com 1.10,2013-03-23 19:14:00,
2013-03-23 15:29:00,38.0,21.0,29.75,SW,221,5.0,-999.0,51,-99.99,,,0.00,weatherlink.com 1.10,2013-03-23 19:29:00,
2013-03-23 15:44:00,38.3,20.0,29.74,NNW,327,4.0,-999.0,48,-99.99,,,0.00,weatherlink.com 1.10,2013-03-23 19:44:00,
2013-03-23 15:59:00,37.9,20.0,29.75,NW,309,5.0,-999.0,48,-99.99,,,0.00,weatherlink.com 1.10,2013-03-23 19:59:00,
2013-03-23 16:15:00,38.6,20.0,29.75,NW,324,10.0,-999.0,48,-99.99,,,0.00,weatherlink.com 1.10,2013-03-23 20:15:00,
2013-03-23 16:30:00,38.5,20.0,29.74,NNW,328,7.0,-999.0,48,-99.99,,,0.00,weatherlink.com 1.10,2013-03-23 20:30:00,
2013-03-23 16:45:00,38.8,20.0,29.75,WNW,296,3.0,-999.0,47,-99.99,,,0.00,weatherlink.com 1.10,2013-03-23 20:45:00,
2013-03-23 17:00:00,38.8,20.0,29.74,WNW,292,10.0,-999.0,47,-99.99,,,0.00,weatherlink.com 1.10,2013-03-23 21:00:00,
2013-03-23 17:15:00,38.4,20.0,29.75,WNW,290,10.0,-999.0,47,-99.99,,,0.00,weatherlink.com 1.10,2013-03-23 21:15:00,
2013-03-23 17:30:00,38.6,20.0,29.75,WNW,300,13.0,-999.0,47,-99.99,,,0.00,weatherlink.com 1.10,2013-03-23 21:30:00,
2013-03-23 17:45:00,37.8,20.0,29.76,NW,315,6.0,-999.0,48,-99.99,,,0.00,weatherlink.com 1.10,2013-03-23 21:45:00,
2013-03-23 18:00:00,37.4,19.0,29.76,NW,321,9.0,-999.0,48,-99.99,,,0.00,weatherlink.com 1.10,2013-03-23 22:00:00,
2013-03-23 18:15:00,37.2,19.0,29.76,West,278,5.0,-999.0,49,-99.99,,,0.00,weatherlink.com 1.10,2013-03-23 22:15:00,
2013-03-23 18:30:00,36.6,19.0,29.77,NW,323,8.0,-999.0,49,-99.99,,,0.00,weatherlink.com 1.10,2013-03-23 22:30:00,
2013-03-23 18:45:00,36.1,19.0,29.78,WSW,254,10.0,-999.0,50,-99.99,,,0.00,weatherlink.com 1.10,2013-03-23 22:45:00,
2013-03-23 19:00:00,35.5,19.0,29.78,NW,314,9.0,-999.0,51,-99.99,,,0.00,weatherlink.com 1.10,2013-03-23 23:00:00,
2013-03-23 19:15:00,34.9,19.0,29.79,West,281,6.0,-999.0,52,-99.99,,,0.00,weatherlink.com 1.10,2013-03-23 23:15:00,
2013-03-23 19:30:00,34.3,19.0,29.80,NW,307,3.0,-999.0,54,-99.99,,,0.00,weatherlink.com 1.10,2013-03-23 23:30:00,
2013-03-23 19:45:00,33.6,18.0,29.81,NNW,340,9.0,-999.0,54,-99.99,,,0.00,weatherlink.com 1.10,2013-03-23 23:45:00,
2013-03-23 20:00:00,33.1,18.0,29.82,WNW,301,9.0,-999.0,55,-99.99,,,0.00,weatherlink.com 1.10,2013-03-24 00:00:00,
2013-03-23 20:15:00,32.8,19.0,29.82,NW,308,9.0,-999.0,57,-99.99,,,0.00,weatherlink.com 1.10,2013-03-24 00:15:00,
2013-03-23 20:30:00,32.6,19.0,29.82,West,281,8.0,-999.0,57,-99.99,,,0.00,weatherlink.com 1.10,2013-03-24 00:30:00,
2013-03-23 20:45:00,32.5,19.0,29.83,WNW,284,7.0,-999.0,58,-99.99,,,0.00,weatherlink.com 1.10,2013-03-24 00:45:00,
2013-03-23 21:00:00,32.3,18.0,29.84,NW,323,6.0,-999.0,57,-99.99,,,0.00,weatherlink.com 1.10,2013-03-24 01:00:00,
2013-03-23 21:15:00,32.2,19.0,29.84,NNW,333,11.0,-999.0,59,-99.99,,,0.00,weatherlink.com 1.10,2013-03-24 01:15:00,
2013-03-23 21:30:00,31.9,20.0,29.85,NW,313,9.0,-999.0,61,-99.99,,,0.00,weatherlink.com 1.10,2013-03-24 01:30:00,
2013-03-23 21:45:00,31.5,19.0,29.84,WNW,295,5.0,-999.0,60,-99.99,,,0.00,weatherlink.com 1.10,2013-03-24 01:45:00,
2013-03-23 22:00:00,31.1,19.0,29.84,NW,304,3.0,-999.0,60,-99.99,,,0.00,weatherlink.com 1.10,2013-03-24 02:00:00,
2013-03-23 22:15:00,30.8,18.0,29.85,WNW,297,4.0,-999.0,60,-99.99,,,0.00,weatherlink.com 1.10,2013-03-24 02:15:00,
2013-03-23 22:30:00,30.6,18.0,29.85,West,271,4.0,-999.0,60,-99.99,,,0.00,weatherlink.com 1.10,2013-03-24 02:30:00,
2013-03-23 22:45:00,30.4,18.0,29.84,WNW,296,2.0,-999.0,61,-99.99,,,0.00,weatherlink.com 1.10,2013-03-24 02:45:00,
2013-03-23 23:00:00,30.1,18.0,29.85,West,279,3.0,-999.0,61,-99.99,,,0.00,weatherlink.com 1.10,2013-03-24 03:00:00,
2013-03-23 23:15:00,29.8,18.0,29.85,WNW,288,6.0,-999.0,61,-99.99,,,0.00,weatherlink.com 1.10,2013-03-24 03:15:00,
2013-03-23 23:30:00,29.7,18.0,29.85,WSW,244,2.0,-999.0,62,-99.99,,,0.00,weatherlink.com 1.10,2013-03-24 03:30:00,
2013-03-23 23:45:00,29.7,18.0,29.85,West,266,3.0,-999.0,63,-99.99,,,0.00,weatherlink.com 1.10,2013-03-24 03:45:00,